Time,TemperatureF,DewpointF,PressureIn,WindDirection,WindDirectionDegrees,WindSpeedMPH,WindSpeedGustMPH,Humidity,HourlyPrecipIn,Conditions,Clouds,dailyrainin,SoftwareType,DateUTC
2013-01-22 00:00:00,40.3,28.3,30.30,NE,36,2.0,3.0,62,0.00,,SKC,0.00,VWS V14.01,2013-01-22 06:00:00,
2013-01-22 00:04:00,40.1,28.5,30.30,NE,41,1.0,2.0,63,0.00,,SKC,0.00,VWS V14.01,2013-01-22 06:04:00,
2013-01-22 00:10:00,39.6,28.4,30.31,NE,41,0.0,2.0,64,0.00,,SKC,0.00,VWS V14.01,2013-01-22 06:10:00,
2013-01-22 00:16:00,39.1,28.3,30.30,NE,41,0.0,2.0,65,0.00,,SKC,0.00,VWS V14.01,2013-01-22 06:16:00,
2013-01-22 00:22:00,38.7,28.3,30.31,NE,41,0.0,2.0,66,0.00,,SKC,0.00,VWS V14.01,2013-01-22 06:22:00,
2013-01-22 00:28:00,38.4,28.0,30.31,NNE,25,0.0,2.0,66,0.00,,SKC,0.00,VWS V14.01,2013-01-22 06:28:00,
2013-01-22 00:30:00,38.4,28.0,30.31,NNE,25,0.0,2.0,66,0.00,,SKC,0.00,VWS V14.01,2013-01-22 06:30:00,
2013-01-22 00:34:00,38.6,28.2,30.31,NNE,27,1.0,2.0,66,0.00,,SKC,0.00,VWS V14.01,2013-01-22 06:34:00,
2013-01-22 00:40:00,38.9,28.1,30.31,NNE,31,1.0,2.0,65,0.00,,SKC,0.00,VWS V14.01,2013-01-22 06:40:00,
2013-01-22 00:46:00,38.9,28.1,30.31,NNE,30,0.0,2.0,65,0.00,,SKC,0.00,VWS V14.01,2013-01-22 06:46:00,
2013-01-22 00:52:00,38.7,28.7,30.30,NNE,30,0.0,2.0,67,0.00,,SKC,0.00,VWS V14.01,2013-01-22 06:52:00,
2013-01-22 00:58:00,38.3,29.0,30.30,NNE,30,0.0,2.0,69,0.00,,SKC,0.00,VWS V14.01,2013-01-22 06:58:00,
2013-01-22 01:00:00,38.2,28.9,30.30,NNE,30,0.0,2.0,69,0.00,,SKC,0.00,VWS V14.01,2013-01-22 07:00:00,
2013-01-22 01:04:00,37.8,28.6,30.30,NNE,30,0.0,1.0,69,0.00,,SKC,0.00,VWS V14.01,2013-01-22 07:04:00,
2013-01-22 01:10:00,36.9,27.7,30.30,NNE,30,0.0,2.0,69,0.00,,SKC,0.00,VWS V14.01,2013-01-22 07:10:00,
2013-01-22 01:16:00,36.7,27.9,30.31,NNE,23,0.0,2.0,70,0.00,,SKC,0.00,VWS V14.01,2013-01-22 07:16:00,
2013-01-22 01:22:00,37.0,27.8,30.31,NE,40,0.0,2.0,69,0.00,,SKC,0.00,VWS V14.01,2013-01-22 07:22:00,
2013-01-22 01:28:00,36.9,28.0,30.31,NE,40,0.0,2.0,70,0.00,,SKC,0.00,VWS V14.01,2013-01-22 07:28:00,
2013-01-22 01:30:00,36.8,28.0,30.31,NE,40,0.0,2.0,70,0.00,,SKC,0.00,VWS V14.01,2013-01-22 07:30:00,
2013-01-22 01:34:00,36.6,27.8,30.31,NE,40,0.0,0.0,70,0.00,,SKC,0.00,VWS V14.01,2013-01-22 07:34:00,
2013-01-22 01:40:00,36.2,27.4,30.30,NE,40,0.0,0.0,70,0.00,,SKC,0.00,VWS V14.01,2013-01-22 07:40:00,
2013-01-22 01:46:00,35.9,27.4,30.30,NE,40,0.0,0.0,71,0.00,,SKC,0.00,VWS V14.01,2013-01-22 07:46:00,
2013-01-22 01:52:00,35.4,27.3,30.30,NE,40,0.0,0.0,72,0.00,,SKC,0.00,VWS V14.01,2013-01-22 07:52:00,
2013-01-22 01:58:00,35.0,26.9,30.31,NE,40,0.0,0.0,72,0.00,,SKC,0.00,VWS V14.01,2013-01-22 07:58:00,
2013-01-22 02:00:00,34.8,27.0,30.30,NE,40,0.0,0.0,73,0.00,,SKC,0.00,VWS V14.01,2013-01-22 08:00:00,
2013-01-22 02:04:00,34.5,26.8,30.30,NE,40,0.0,0.0,73,0.00,,SKC,0.00,VWS V14.01,2013-01-22 08:04:00,
2013-01-22 02:10:00,34.0,26.6,30.30,NE,40,0.0,1.0,74,0.00,,SKC,0.00,VWS V14.01,2013-01-22 08:10:00,
2013-01-22 02:16:00,34.1,27.0,30.30,NE,40,0.0,1.0,75,0.00,,SKC,0.00,VWS V14.01,2013-01-22 08:16:00,
2013-01-22 02:22:00,34.5,27.4,30.30,NE,40,0.0,1.0,75,0.00,,SKC,0.00,VWS V14.01,2013-01-22 08:22:00,
2013-01-22 02:28:00,34.7,27.6,30.31,NE,40,0.0,1.0,75,0.00,,SKC,0.00,VWS V14.01,2013-01-22 08:28:00,
2013-01-22 02:30:00,34.8,27.7,30.31,NE,40,0.0,1.0,75,0.00,,SKC,0.00,VWS V14.01,2013-01-22 08:30:00,
2013-01-22 02:34:00,34.7,27.3,30.30,NE,40,0.0,1.0,74,0.00,,SKC,0.00,VWS V14.01,2013-01-22 08:34:00,
2013-01-22 02:40:00,34.7,27.6,30.31,NE,40,0.0,1.0,75,0.00,,SKC,0.00,VWS V14.01,2013-01-22 08:40:00,
2013-01-22 02:46:00,34.6,27.5,30.31,NE,40,0.0,1.0,75,0.00,,SKC,0.00,VWS V14.01,2013-01-22 08:46:00,
2013-01-22 02:52:00,34.3,27.2,30.30,NE,40,0.0,1.0,75,0.00,,SKC,0.00,VWS V14.01,2013-01-22 08:52:00,
2013-01-22 02:58:00,34.2,27.1,30.30,NE,40,0.0,1.0,75,0.00,,SKC,0.00,VWS V14.01,2013-01-22 08:58:00,
2013-01-22 03:00:00,34.1,27.0,30.30,NE,40,0.0,1.0,75,0.00,,SKC,0.00,VWS V14.01,2013-01-22 09:00:00,
2013-01-22 03:04:00,33.9,27.1,30.30,NE,40,0.0,0.0,76,0.00,,SKC,0.00,VWS V14.01,2013-01-22 09:04:00,
2013-01-22 03:10:00,33.6,26.9,30.30,NE,40,0.0,0.0,76,0.00,,SKC,0.00,VWS V14.01,2013-01-22 09:10:00,
2013-01-22 03:16:00,33.4,26.7,30.30,NE,40,0.0,0.0,76,0.00,,SKC,0.00,VWS V14.01,2013-01-22 09:16:00,
2013-01-22 03:22:00,33.2,26.8,30.30,NE,40,0.0,0.0,77,0.00,,SKC,0.00,VWS V14.01,2013-01-22 09:22:00,
2013-01-22 03:28:00,33.2,26.8,30.31,NE,40,0.0,0.0,77,0.00,,SKC,0.00,VWS V14.01,2013-01-22 09:28:00,
2013-01-22 03:30:00,33.2,26.8,30.31,NE,40,0.0,0.0,77,0.00,,SKC,0.00,VWS V14.01,2013-01-22 09:30:00,
2013-01-22 03:34:00,33.4,27.3,30.31,NE,40,0.0,1.0,78,0.00,,SKC,0.00,VWS V14.01,2013-01-22 09:34:00,
2013-01-22 03:40:00,33.6,27.2,30.31,NE,40,0.0,1.0,77,0.00,,SKC,0.00,VWS V14.01,2013-01-22 09:40:00,
2013-01-22 03:46:00,33.7,27.3,30.31,NE,40,0.0,1.0,77,0.00,,SKC,0.00,VWS V14.01,2013-01-22 09:46:00,
2013-01-22 03:52:00,33.7,27.6,30.31,NE,40,0.0,1.0,78,0.00,,SKC,0.00,VWS V14.01,2013-01-22 09:52:00,
2013-01-22 03:58:00,34.0,27.9,30.31,NNE,21,0.0,1.0,78,0.00,,SKC,0.00,VWS V14.01,2013-01-22 09:58:00,
2013-01-22 04:00:00,34.1,28.0,30.31,NNE,32,1.0,2.0,78,0.00,,SKC,0.00,VWS V14.01,2013-01-22 10:00:00,
2013-01-22 04:04:00,34.4,28.0,30.31,NE,36,0.0,1.0,77,0.00,,SKC,0.00,VWS V14.01,2013-01-22 10:04:00,
2013-01-22 04:10:00,34.7,28.2,30.31,NE,36,0.0,1.0,77,0.00,,SKC,0.00,VWS V14.01,2013-01-22 10:10:00,
2013-01-22 04:16:00,34.9,28.1,30.31,ENE,57,0.0,2.0,76,0.00,,SKC,0.00,VWS V14.01,2013-01-22 10:16:00,
2013-01-22 04:22:00,35.0,28.2,30.31,NNE,31,0.0,2.0,76,0.00,,SKC,0.00,VWS V14.01,2013-01-22 10:22:00,
2013-01-22 04:28:00,35.2,28.1,30.31,NNE,31,0.0,2.0,75,0.00,,SKC,0.00,VWS V14.01,2013-01-22 10:28:00,
2013-01-22 04:30:00,35.2,28.1,30.31,NNE,31,1.0,2.0,75,0.00,,SKC,0.00,VWS V14.01,2013-01-22 10:30:00,
2013-01-22 04:34:00,35.3,28.2,30.31,NNE,32,0.0,2.0,75,0.00,,SKC,0.00,VWS V14.01,2013-01-22 10:34:00,
2013-01-22 04:40:00,35.5,28.0,30.32,NE,35,1.0,3.0,74,0.00,,SKC,0.00,VWS V14.01,2013-01-22 10:40:00,
2013-01-22 04:46:00,35.8,28.7,30.32,ENE,57,1.0,3.0,75,0.00,,SKC,0.00,VWS V14.01,2013-01-22 10:46:00,
2013-01-22 04:52:00,35.9,28.8,30.32,ENE,57,0.0,3.0,75,0.00,,SKC,0.00,VWS V14.01,2013-01-22 10:52:00,
2013-01-22 04:58:00,36.0,28.5,30.32,NE,38,0.0,3.0,74,0.00,,SKC,0.00,VWS V14.01,2013-01-22 10:58:00,
2013-01-22 05:00:00,36.0,28.5,30.32,NE,38,0.0,3.0,74,0.00,,SKC,0.00,VWS V14.01,2013-01-22 11:00:00,
2013-01-22 05:04:00,36.1,28.6,30.32,NNE,24,0.0,1.0,74,0.00,,SKC,0.00,VWS V14.01,2013-01-22 11:04:00,
2013-01-22 05:11:00,36.1,28.6,30.33,NNE,23,1.0,1.0,74,0.00,,SKC,0.00,VWS V14.01,2013-01-22 11:11:00,
2013-01-22 05:17:00,36.2,28.7,30.33,North,11,0.0,1.0,74,0.00,,SKC,0.00,VWS V14.01,2013-01-22 11:17:00,
2013-01-22 05:23:00,36.2,28.7,30.33,NNE,19,2.0,2.0,74,0.00,,SKC,0.00,VWS V14.01,2013-01-22 11:23:00,
2013-01-22 05:29:00,36.2,28.7,30.33,NNE,29,0.0,3.0,74,0.00,,SKC,0.00,VWS V14.01,2013-01-22 11:29:00,
2013-01-22 05:30:00,36.2,28.4,30.33,NNE,29,0.0,3.0,73,0.00,,SKC,0.00,VWS V14.01,2013-01-22 11:30:00,
2013-01-22 05:35:00,36.3,28.8,30.33,NNE,31,1.0,2.0,74,0.00,,SKC,0.00,VWS V14.01,2013-01-22 11:35:00,
2013-01-22 05:41:00,36.4,28.9,30.33,NNE,32,0.0,2.0,74,0.00,,SKC,0.00,VWS V14.01,2013-01-22 11:41:00,
2013-01-22 05:47:00,36.4,28.6,30.34,NE,34,1.0,3.0,73,0.00,,SKC,0.00,VWS V14.01,2013-01-22 11:47:00,
2013-01-22 05:53:00,36.5,29.0,30.34,North,5,0.0,3.0,74,0.00,,SKC,0.00,VWS V14.01,2013-01-22 11:53:00,
2013-01-22 05:59:00,36.5,29.0,30.34,NNE,13,0.0,3.0,74,0.00,,SKC,0.00,VWS V14.01,2013-01-22 11:59:00,
2013-01-22 06:00:00,36.5,29.0,30.34,NNE,13,0.0,3.0,74,0.00,,SKC,0.00,VWS V14.01,2013-01-22 12:00:00,
2013-01-22 06:05:00,36.5,29.0,30.34,NNE,13,0.0,1.0,74,0.00,,SKC,0.00,VWS V14.01,2013-01-22 12:05:00,
2013-01-22 06:14:00,36.5,29.3,30.34,NNE,13,0.0,1.0,75,0.00,,SKC,0.00,VWS V14.01,2013-01-22 12:14:00,
2013-01-22 06:20:00,36.3,29.1,30.34,NNE,15,0.0,1.0,75,0.00,,SKC,0.00,VWS V14.01,2013-01-22 12:20:00,
2013-01-22 06:26:00,36.2,29.0,30.34,NNE,15,0.0,1.0,75,0.00,,SKC,0.00,VWS V14.01,2013-01-22 12:26:00,
2013-01-22 06:30:00,36.0,28.9,30.34,NNE,15,0.0,1.0,75,0.00,,SKC,0.00,VWS V14.01,2013-01-22 12:30:00,
2013-01-22 06:32:00,35.9,29.1,30.35,NNE,15,0.0,0.0,76,0.00,,SKC,0.00,VWS V14.01,2013-01-22 12:32:00,
2013-01-22 06:38:00,35.6,28.8,30.35,NNE,15,0.0,0.0,76,0.00,,SKC,0.00,VWS V14.01,2013-01-22 12:38:00,
2013-01-22 06:44:00,35.4,28.9,30.35,NNE,15,0.0,0.0,77,0.00,,SKC,0.00,VWS V14.01,2013-01-22 12:44:00,
2013-01-22 06:50:00,35.2,28.7,30.35,NNE,15,0.0,0.0,77,0.00,,SKC,0.00,VWS V14.01,2013-01-22 12:50:00,
2013-01-22 06:56:00,35.0,28.5,30.35,NNE,15,0.0,0.0,77,0.00,,SKC,0.00,VWS V14.01,2013-01-22 12:56:00,
2013-01-22 07:00:00,34.8,28.6,30.35,NNE,15,0.0,0.0,78,0.00,,SKC,0.00,VWS V14.01,2013-01-22 13:00:00,
2013-01-22 07:02:00,34.8,28.6,30.35,NNE,15,0.0,0.0,78,0.00,,SKC,0.00,VWS V14.01,2013-01-22 13:02:00,
2013-01-22 07:08:00,34.8,29.0,30.35,NNE,15,0.0,0.0,79,0.00,,SKC,0.00,VWS V14.01,2013-01-22 13:08:00,
2013-01-22 07:14:00,34.8,29.0,30.36,NNE,15,0.0,1.0,79,0.00,,SKC,0.00,VWS V14.01,2013-01-22 13:14:00,
2013-01-22 07:20:00,35.2,29.4,30.37,NNE,15,0.0,1.0,79,0.00,,SKC,0.00,VWS V14.01,2013-01-22 13:20:00,
2013-01-22 07:26:00,35.5,30.0,30.37,NNE,15,0.0,1.0,80,0.00,,SKC,0.00,VWS V14.01,2013-01-22 13:26:00,
2013-01-22 07:30:00,35.6,30.0,30.37,NNE,15,0.0,1.0,80,0.00,,SKC,0.00,VWS V14.01,2013-01-22 13:30:00,
2013-01-22 07:32:00,35.7,30.1,30.37,NNE,15,0.0,0.0,80,0.00,,SKC,0.00,VWS V14.01,2013-01-22 13:32:00,
2013-01-22 08:00:00,36.8,31.8,30.37,NE,45,0.0,3.0,82,0.00,,SKC,0.00,VWS V14.01,2013-01-22 14:00:00,
2013-01-22 08:30:00,39.5,33.8,30.35,ESE,112,1.0,5.0,80,0.00,,SKC,0.00,VWS V14.01,2013-01-22 14:30:00,
2013-01-22 09:00:00,47.3,37.7,30.36,South,169,3.0,8.0,69,0.00,,SKC,0.00,VWS V14.01,2013-01-22 15:00:00,
2013-01-22 09:26:00,44.6,35.8,30.36,SSW,193,6.0,8.0,71,0.00,,SKC,0.00,VWS V14.01,2013-01-22 15:26:00,
2013-01-22 09:30:00,44.9,35.7,30.36,SSW,210,4.0,8.0,70,0.00,,SKC,0.00,VWS V14.01,2013-01-22 15:30:00,
2013-01-22 09:31:00,44.9,35.7,30.36,SSW,210,4.0,8.0,70,0.00,,SKC,0.00,VWS V14.01,2013-01-22 15:31:00,
2013-01-22 09:38:00,45.6,36.4,30.36,ESE,119,3.0,7.0,70,0.00,,SKC,0.00,VWS V14.01,2013-01-22 15:38:00,
2013-01-22 09:44:00,45.9,36.0,30.36,SE,144,5.0,8.0,68,0.00,,SKC,0.00,VWS V14.01,2013-01-22 15:44:00,
2013-01-22 09:50:00,46.2,36.6,30.36,South,169,2.0,8.0,69,0.00,,SKC,0.00,VWS V14.01,2013-01-22 15:50:00,
2013-01-22 09:56:00,46.8,37.5,30.36,SSE,161,3.0,8.0,70,0.00,,SKC,0.00,VWS V14.01,2013-01-22 15:56:00,
2013-01-22 10:00:00,47.3,37.7,30.36,South,169,3.0,8.0,69,0.00,,SKC,0.00,VWS V14.01,2013-01-22 16:00:00,
2013-01-22 10:02:00,47.4,37.8,30.36,SSW,202,5.0,5.0,69,0.00,,SKC,0.00,VWS V14.01,2013-01-22 16:02:00,
2013-01-22 10:08:00,47.7,38.0,30.36,ESE,105,4.0,7.0,69,0.00,,SKC,0.00,VWS V14.01,2013-01-22 16:08:00,
2013-01-22 10:14:00,48.4,38.7,30.36,South,171,3.0,7.0,69,0.00,,SKC,0.00,VWS V14.01,2013-01-22 16:14:00,
2013-01-22 10:20:00,48.7,38.6,30.36,SSE,154,4.0,7.0,68,0.00,,SKC,0.00,VWS V14.01,2013-01-22 16:20:00,
2013-01-22 10:26:00,48.9,38.4,30.36,ESE,119,2.0,7.0,67,0.00,,SKC,0.00,VWS V14.01,2013-01-22 16:26:00,
2013-01-22 10:30:00,49.6,38.7,30.36,SSE,166,2.0,7.0,66,0.00,,SKC,0.00,VWS V14.01,2013-01-22 16:30:00,
2013-01-22 10:32:00,49.8,38.9,30.36,SSE,158,2.0,5.0,66,0.00,,SKC,0.00,VWS V14.01,2013-01-22 16:32:00,
2013-01-22 10:38:00,50.8,39.9,30.35,SSW,192,1.0,7.0,66,0.00,,SKC,0.00,VWS V14.01,2013-01-22 16:38:00,
2013-01-22 10:44:00,51.1,39.4,30.35,SSE,166,4.0,7.0,64,0.00,,SKC,0.00,VWS V14.01,2013-01-22 16:44:00,
2013-01-22 10:50:00,51.2,39.8,30.35,SSE,164,1.0,7.0,65,0.00,,SKC,0.00,VWS V14.01,2013-01-22 16:50:00,
2013-01-22 10:59:00,51.9,40.5,30.35,WSW,248,3.0,7.0,65,0.00,,SKC,0.00,VWS V14.01,2013-01-22 16:59:00,
2013-01-22 11:00:00,52.1,40.7,30.35,West,280,3.0,7.0,65,0.00,,SKC,0.00,VWS V14.01,2013-01-22 17:00:00,
2013-01-22 11:06:00,52.7,40.9,30.35,SW,236,4.0,7.0,64,0.00,,SKC,0.00,VWS V14.01,2013-01-22 17:06:00,
2013-01-22 11:12:00,52.7,40.9,30.35,ESE,105,0.0,7.0,64,0.00,,SKC,0.00,VWS V14.01,2013-01-22 17:12:00,
2013-01-22 11:18:00,53.2,40.5,30.34,SW,228,4.0,7.0,62,0.00,,SKC,0.00,VWS V14.01,2013-01-22 17:18:00,
2013-01-22 11:24:00,53.2,41.0,30.34,SW,221,0.0,7.0,63,0.00,,SKC,0.00,VWS V14.01,2013-01-22 17:24:00,
2013-01-22 11:30:00,53.9,41.2,30.34,SSW,194,1.0,7.0,62,0.00,,SKC,0.00,VWS V14.01,2013-01-22 17:30:00,
2013-01-22 11:36:00,54.2,41.1,30.33,WSW,238,3.0,5.0,61,0.00,,SKC,0.00,VWS V14.01,2013-01-22 17:36:00,
2013-01-22 11:42:00,54.1,41.4,30.33,SW,227,1.0,6.0,62,0.00,,SKC,0.00,VWS V14.01,2013-01-22 17:42:00,
2013-01-22 11:48:00,54.6,41.9,30.33,SSW,208,2.0,6.0,62,0.00,,SKC,0.00,VWS V14.01,2013-01-22 17:48:00,
2013-01-22 11:54:00,54.7,41.5,30.32,WSW,254,1.0,7.0,61,0.00,,SKC,0.00,VWS V14.01,2013-01-22 17:54:00,
2013-01-22 12:00:00,54.8,42.0,30.32,WSW,248,3.0,7.0,62,0.00,,SKC,0.00,VWS V14.01,2013-01-22 18:00:00,
2013-01-22 12:06:00,54.9,42.6,30.32,SSE,166,2.0,6.0,63,0.00,,SKC,0.00,VWS V14.01,2013-01-22 18:06:00,
2013-01-22 12:12:00,55.6,42.8,30.32,WSW,248,2.0,6.0,62,0.00,,SKC,0.00,VWS V14.01,2013-01-22 18:12:00,
2013-01-22 12:18:00,55.9,42.7,30.32,SW,225,4.0,6.0,61,0.00,,SKC,0.00,VWS V14.01,2013-01-22 18:18:00,
2013-01-22 12:24:00,56.0,42.8,30.32,WSW,254,0.0,6.0,61,0.00,,SKC,0.00,VWS V14.01,2013-01-22 18:24:00,
2013-01-22 12:30:00,56.5,43.2,30.31,SSW,209,4.0,6.0,61,0.00,,SKC,0.00,VWS V14.01,2013-01-22 18:30:00,
2013-01-22 12:36:00,57.4,44.1,30.31,NW,308,3.0,5.0,61,0.00,,SKC,0.00,VWS V14.01,2013-01-22 18:36:00,
2013-01-22 12:42:00,58.3,44.0,30.32,NW,312,3.0,5.0,59,0.00,,SKC,0.00,VWS V14.01,2013-01-22 18:42:00,
2013-01-22 12:48:00,57.8,43.1,30.31,SSW,201,3.0,5.0,58,0.00,,SKC,0.00,VWS V14.01,2013-01-22 18:48:00,
2013-01-22 12:54:00,57.5,43.7,30.30,WSW,246,2.0,5.0,60,0.00,,SKC,0.00,VWS V14.01,2013-01-22 18:54:00,
2013-01-22 13:00:00,57.4,43.6,30.30,WSW,252,2.0,5.0,60,0.00,,SKC,0.00,VWS V14.01,2013-01-22 19:00:00,
2013-01-22 13:06:00,57.7,44.4,30.30,SSW,196,3.0,7.0,61,0.00,,SKC,0.00,VWS V14.01,2013-01-22 19:06:00,
2013-01-22 13:12:00,58.1,44.7,30.30,West,277,1.0,7.0,61,0.00,,SKC,0.00,VWS V14.01,2013-01-22 19:12:00,
2013-01-22 13:18:00,58.2,44.4,30.29,West,269,1.0,7.0,60,0.00,,SKC,0.00,VWS V14.01,2013-01-22 19:18:00,
2013-01-22 13:25:00,59.3,45.4,30.29,WSW,252,3.0,7.0,60,0.00,,SKC,0.00,VWS V14.01,2013-01-22 19:25:00,
2013-01-22 13:30:00,59.7,45.4,30.28,WSW,253,0.0,7.0,59,0.00,,SKC,0.00,VWS V14.01,2013-01-22 19:30:00,
2013-01-22 13:31:00,59.7,45.4,30.28,WSW,253,0.0,7.0,59,0.00,,SKC,0.00,VWS V14.01,2013-01-22 19:31:00,
2013-01-22 13:37:00,59.6,44.8,30.28,West,268,3.0,6.0,58,0.00,,SKC,0.00,VWS V14.01,2013-01-22 19:37:00,
2013-01-22 13:43:00,59.3,45.4,30.28,SW,236,3.0,6.0,60,0.00,,SKC,0.00,VWS V14.01,2013-01-22 19:43:00,
2013-01-22 13:49:00,59.2,45.8,30.27,West,270,2.0,6.0,61,0.00,,SKC,0.00,VWS V14.01,2013-01-22 19:49:00,
2013-01-22 13:55:00,59.5,45.6,30.27,WSW,258,3.0,6.0,60,0.00,,SKC,0.00,VWS V14.01,2013-01-22 19:55:00,
2013-01-22 14:00:00,60.7,47.2,30.27,West,261,4.0,6.0,61,0.00,,SKC,0.00,VWS V14.01,2013-01-22 20:00:00,
2013-01-22 14:01:00,60.7,47.2,30.27,West,261,4.0,6.0,61,0.00,,SKC,0.00,VWS V14.01,2013-01-22 20:01:00,
2013-01-22 14:07:00,60.2,45.8,30.27,SSW,211,0.0,8.0,59,0.00,,SKC,0.00,VWS V14.01,2013-01-22 20:07:00,
2013-01-22 14:13:00,59.5,46.1,30.27,West,261,3.0,8.0,61,0.00,,SKC,0.00,VWS V14.01,2013-01-22 20:13:00,
2013-01-22 14:19:00,59.1,46.1,30.27,WSW,258,2.0,8.0,62,0.00,,SKC,0.00,VWS V14.01,2013-01-22 20:19:00,
2013-01-22 14:25:00,58.9,46.3,30.26,SSW,205,3.0,8.0,63,0.00,,SKC,0.00,VWS V14.01,2013-01-22 20:25:00,
2013-01-22 14:30:00,59.4,46.8,30.26,SSW,192,4.0,8.0,63,0.00,,SKC,0.00,VWS V14.01,2013-01-22 20:30:00,
2013-01-22 14:31:00,59.4,46.8,30.26,SSW,192,4.0,8.0,63,0.00,,SKC,0.00,VWS V14.01,2013-01-22 20:31:00,
2013-01-22 14:37:00,59.3,46.7,30.26,SW,221,3.0,6.0,63,0.00,,SKC,0.00,VWS V14.01,2013-01-22 20:37:00,
2013-01-22 14:43:00,59.7,47.1,30.26,SSE,162,0.0,6.0,63,0.00,,SKC,0.00,VWS V14.01,2013-01-22 20:43:00,
2013-01-22 14:50:00,60.6,47.1,30.26,SSE,159,4.0,6.0,61,0.00,,SKC,0.00,VWS V14.01,2013-01-22 20:50:00,
2013-01-22 14:56:00,61.1,47.1,30.26,SSW,206,2.0,6.0,60,0.00,,SKC,0.00,VWS V14.01,2013-01-22 20:56:00,
2013-01-22 15:00:00,61.4,47.4,30.25,WSW,239,3.0,6.0,60,0.00,,SKC,0.00,VWS V14.01,2013-01-22 21:00:00,
2013-01-22 15:02:00,61.3,47.3,30.25,SSW,196,1.0,3.0,60,0.00,,SKC,0.00,VWS V14.01,2013-01-22 21:02:00,
2013-01-22 15:08:00,61.4,47.8,30.25,WSW,248,3.0,6.0,61,0.00,,SKC,0.00,VWS V14.01,2013-01-22 21:08:00,
2013-01-22 15:14:00,61.9,47.9,30.25,SE,127,3.0,8.0,60,0.00,,SKC,0.00,VWS V14.01,2013-01-22 21:14:00,
2013-01-22 15:20:00,61.8,47.8,30.25,ESE,120,2.0,8.0,60,0.00,,SKC,0.00,VWS V14.01,2013-01-22 21:20:00,
2013-01-22 15:26:00,62.0,48.0,30.25,SSE,154,3.0,8.0,60,0.00,,SKC,0.00,VWS V14.01,2013-01-22 21:26:00,
2013-01-22 15:30:00,62.2,48.2,30.24,South,176,3.0,8.0,60,0.00,,SKC,0.00,VWS V14.01,2013-01-22 21:30:00,
2013-01-22 15:32:00,62.4,47.9,30.24,SSE,149,4.0,6.0,59,0.00,,SKC,0.00,VWS V14.01,2013-01-22 21:32:00,
2013-01-22 15:38:00,62.6,48.1,30.24,SSW,207,1.0,6.0,59,0.00,,SKC,0.00,VWS V14.01,2013-01-22 21:38:00,
2013-01-22 15:44:00,63.1,48.1,30.24,SSW,202,4.0,6.0,58,0.00,,SKC,0.00,VWS V14.01,2013-01-22 21:44:00,
2013-01-22 15:47:00,63.1,48.1,30.24,SSW,213,2.0,6.0,58,0.00,,SKC,0.00,VWS V14.01,2013-01-22 21:47:00,
2013-01-22 15:53:00,63.1,48.1,30.24,WSW,240,2.0,6.0,58,0.00,,SKC,0.00,VWS V14.01,2013-01-22 21:53:00,
2013-01-22 15:59:00,63.4,47.9,30.24,SSW,197,0.0,6.0,57,0.00,,SKC,0.00,VWS V14.01,2013-01-22 21:59:00,
2013-01-22 16:00:00,63.5,48.0,30.24,West,277,4.0,6.0,57,0.00,,SKC,0.00,VWS V14.01,2013-01-22 22:00:00,
2013-01-22 16:05:00,63.6,48.6,30.24,South,171,3.0,5.0,58,0.00,,SKC,0.00,VWS V14.01,2013-01-22 22:05:00,
2013-01-22 16:11:00,63.7,48.7,30.24,SSW,211,3.0,5.0,58,0.00,,SKC,0.00,VWS V14.01,2013-01-22 22:11:00,
2013-01-22 16:17:00,64.0,48.5,30.24,ESE,120,2.0,5.0,57,0.00,,SKC,0.00,VWS V14.01,2013-01-22 22:17:00,
2013-01-22 16:23:00,63.6,48.6,30.24,SSE,155,2.0,6.0,58,0.00,,SKC,0.00,VWS V14.01,2013-01-22 22:23:00,
2013-01-22 16:30:00,63.4,48.8,30.24,SE,126,3.0,7.0,59,0.00,,SKC,0.00,VWS V14.01,2013-01-22 22:30:00,
2013-01-22 16:36:00,63.3,48.7,30.24,SSW,207,4.0,7.0,59,0.00,,SKC,0.00,VWS V14.01,2013-01-22 22:36:00,
2013-01-22 16:42:00,63.3,48.7,30.24,SSW,196,4.0,7.0,59,0.00,,SKC,0.00,VWS V14.01,2013-01-22 22:42:00,
2013-01-22 16:48:00,63.2,48.7,30.24,South,182,2.0,7.0,59,0.00,,SKC,0.00,VWS V14.01,2013-01-22 22:48:00,
2013-01-22 16:54:00,63.3,48.7,30.24,SW,223,3.0,7.0,59,0.00,,SKC,0.00,VWS V14.01,2013-01-22 22:54:00,
2013-01-22 17:00:00,63.0,48.9,30.24,SSE,161,0.0,7.0,60,0.00,,SKC,0.00,VWS V14.01,2013-01-22 23:00:00,
2013-01-22 17:06:00,62.7,48.6,30.24,South,186,1.0,6.0,60,0.00,,SKC,0.00,VWS V14.01,2013-01-22 23:06:00,
2013-01-22 17:12:00,62.4,48.8,30.24,SSW,194,2.0,6.0,61,0.00,,SKC,0.00,VWS V14.01,2013-01-22 23:12:00,
2013-01-22 17:18:00,62.3,48.7,30.24,South,188,1.0,6.0,61,0.00,,SKC,0.00,VWS V14.01,2013-01-22 23:18:00,
2013-01-22 17:24:00,62.1,48.5,30.24,SW,217,2.0,6.0,61,0.00,,SKC,0.00,VWS V14.01,2013-01-22 23:24:00,
2013-01-22 17:30:00,61.9,48.8,30.24,SSW,201,0.0,6.0,62,0.00,,SKC,0.00,VWS V14.01,2013-01-22 23:30:00,
2013-01-22 17:36:00,61.5,48.4,30.24,South,178,1.0,4.0,62,0.00,,SKC,0.00,VWS V14.01,2013-01-22 23:36:00,
2013-01-22 17:42:00,61.1,48.4,30.24,ESE,113,1.0,4.0,63,0.00,,SKC,0.00,VWS V14.01,2013-01-22 23:42:00,
2013-01-22 17:48:00,60.7,48.5,30.24,ESE,113,2.0,4.0,64,0.00,,SKC,0.00,VWS V14.01,2013-01-22 23:48:00,
2013-01-22 17:54:00,60.2,48.4,30.24,ESE,115,1.0,4.0,65,0.00,,SKC,0.00,VWS V14.01,2013-01-22 23:54:00,
2013-01-22 18:00:00,59.6,48.2,30.24,ESE,115,1.0,4.0,66,0.00,,SKC,0.00,VWS V14.01,2013-01-23 00:00:00,
2013-01-22 18:09:00,58.6,48.1,30.25,East,82,1.0,3.0,68,0.00,,SKC,0.00,VWS V14.01,2013-01-23 00:09:00,
2013-01-22 18:15:00,58.0,47.9,30.25,East,81,3.0,3.0,69,0.00,,SKC,0.00,VWS V14.01,2013-01-23 00:15:00,
2013-01-22 18:21:00,57.5,47.4,30.25,East,89,1.0,3.0,69,0.00,,SKC,0.00,VWS V14.01,2013-01-23 00:21:00,
2013-01-22 18:27:00,57.0,47.7,30.25,East,95,3.0,3.0,71,0.00,,SKC,0.00,VWS V14.01,2013-01-23 00:27:00,
2013-01-22 18:30:00,56.8,47.5,30.25,East,82,2.0,3.0,71,0.00,,SKC,0.00,VWS V14.01,2013-01-23 00:30:00,
2013-01-22 18:33:00,56.6,47.7,30.25,East,79,2.0,2.0,72,0.00,,SKC,0.00,VWS V14.01,2013-01-23 00:33:00,
2013-01-22 18:39:00,56.2,47.3,30.25,ESE,104,1.0,3.0,72,0.00,,SKC,0.00,VWS V14.01,2013-01-23 00:39:00,
2013-01-22 18:45:00,55.7,47.2,30.25,ESE,109,1.0,3.0,73,0.00,,SKC,0.00,VWS V14.01,2013-01-23 00:45:00,
2013-01-22 18:54:00,55.2,47.1,30.25,ESE,106,1.0,3.0,74,0.00,,SKC,0.00,VWS V14.01,2013-01-23 00:54:00,
2013-01-22 19:00:00,55.0,47.2,30.25,ESE,112,1.0,3.0,75,0.00,,SKC,0.00,VWS V14.01,2013-01-23 01:00:00,
2013-01-22 19:06:00,54.7,46.9,30.25,ESE,109,1.0,2.0,75,0.00,,SKC,0.00,VWS V14.01,2013-01-23 01:06:00,
2013-01-22 19:12:00,54.5,46.8,30.25,East,101,2.0,3.0,75,0.00,,SKC,0.00,VWS V14.01,2013-01-23 01:12:00,
2013-01-22 19:19:00,54.3,46.9,30.25,East,100,2.0,3.0,76,0.00,,SKC,0.00,VWS V14.01,2013-01-23 01:19:00,
2013-01-22 19:25:00,54.0,46.6,30.25,East,100,1.0,3.0,76,0.00,,SKC,0.00,VWS V14.01,2013-01-23 01:25:00,
2013-01-22 19:30:00,53.7,46.3,30.26,East,100,0.0,3.0,76,0.00,,SKC,0.00,VWS V14.01,2013-01-23 01:30:00,
2013-01-22 19:31:00,53.7,46.3,30.26,East,100,0.0,3.0,76,0.00,,SKC,0.00,VWS V14.01,2013-01-23 01:31:00,
2013-01-22 19:37:00,53.3,46.3,30.26,East,100,2.0,2.0,77,0.00,,SKC,0.00,VWS V14.01,2013-01-23 01:37:00,
2013-01-22 19:43:00,53.1,46.1,30.26,East,89,1.0,3.0,77,0.00,,SKC,0.00,VWS V14.01,2013-01-23 01:43:00,
2013-01-22 19:49:00,52.9,46.2,30.26,East,88,2.0,3.0,78,0.00,,SKC,0.00,VWS V14.01,2013-01-23 01:49:00,
2013-01-22 19:55:00,52.8,46.5,30.26,East,90,1.0,3.0,79,0.00,,SKC,0.00,VWS V14.01,2013-01-23 01:55:00,
2013-01-22 20:00:00,52.9,46.6,30.26,East,94,1.0,4.0,79,0.00,,SKC,0.00,VWS V14.01,2013-01-23 02:00:00,
2013-01-22 20:01:00,52.9,46.6,30.26,East,94,1.0,4.0,79,0.00,,SKC,0.00,VWS V14.01,2013-01-23 02:01:00,
2013-01-22 20:07:00,53.1,46.8,30.26,East,98,2.0,5.0,79,0.00,,SKC,0.00,VWS V14.01,2013-01-23 02:07:00,
2013-01-22 20:13:00,53.0,46.7,30.27,East,96,1.0,5.0,79,0.00,,SKC,0.00,VWS V14.01,2013-01-23 02:13:00,
2013-01-22 20:19:00,52.8,46.5,30.27,East,92,1.0,5.0,79,0.00,,SKC,0.00,VWS V14.01,2013-01-23 02:19:00,
2013-01-22 20:25:00,52.6,46.3,30.27,East,92,1.0,5.0,79,0.00,,SKC,0.00,VWS V14.01,2013-01-23 02:25:00,
2013-01-22 20:30:00,52.5,46.5,30.27,East,92,2.0,5.0,80,0.00,,SKC,0.00,VWS V14.01,2013-01-23 02:30:00,
2013-01-22 20:31:00,52.5,46.5,30.27,East,92,2.0,5.0,80,0.00,,SKC,0.00,VWS V14.01,2013-01-23 02:31:00,
2013-01-22 20:37:00,52.5,46.5,30.27,ESE,120,2.0,3.0,80,0.00,,SKC,0.00,VWS V14.01,2013-01-23 02:37:00,
2013-01-22 20:43:00,52.5,46.5,30.27,ESE,107,2.0,4.0,80,0.00,,SKC,0.00,VWS V14.01,2013-01-23 02:43:00,
2013-01-22 20:49:00,52.4,46.4,30.27,ESE,107,1.0,4.0,80,0.00,,SKC,0.00,VWS V14.01,2013-01-23 02:49:00,
2013-01-22 20:55:00,52.4,46.8,30.27,ESE,111,3.0,4.0,81,0.00,,SKC,0.00,VWS V14.01,2013-01-23 02:55:00,
2013-01-22 21:00:00,52.3,46.3,30.27,East,96,1.0,4.0,80,0.00,,SKC,0.00,VWS V14.01,2013-01-23 03:00:00,
2013-01-22 21:01:00,52.3,46.3,30.27,East,96,1.0,4.0,80,0.00,,SKC,0.00,VWS V14.01,2013-01-23 03:01:00,
2013-01-22 21:07:00,52.3,46.7,30.26,ESE,123,2.0,2.0,81,0.00,,SKC,0.00,VWS V14.01,2013-01-23 03:07:00,
2013-01-22 21:13:00,52.5,46.8,30.26,SE,126,1.0,4.0,81,0.00,,SKC,0.00,VWS V14.01,2013-01-23 03:13:00,
2013-01-22 21:20:00,52.5,46.5,30.26,SE,126,1.0,4.0,80,0.00,,SKC,0.00,VWS V14.01,2013-01-23 03:20:00,
2013-01-22 21:26:00,52.5,46.5,30.26,SE,124,2.0,4.0,80,0.00,,SKC,0.00,VWS V14.01,2013-01-23 03:26:00,
2013-01-22 21:30:00,52.6,46.6,30.26,SSE,149,2.0,4.0,80,0.00,,SKC,0.00,VWS V14.01,2013-01-23 03:30:00,
2013-01-22 21:31:00,52.6,46.6,30.26,SSE,149,2.0,4.0,80,0.00,,SKC,0.00,VWS V14.01,2013-01-23 03:31:00,
2013-01-22 21:38:00,52.8,46.8,30.26,SSE,156,3.0,4.0,80,0.00,,SKC,0.00,VWS V14.01,2013-01-23 03:38:00,
2013-01-22 21:44:00,52.8,46.8,30.26,South,171,1.0,4.0,80,0.00,,SKC,0.00,VWS V14.01,2013-01-23 03:44:00,
2013-01-22 21:50:00,53.0,47.0,30.25,SE,138,3.0,7.0,80,0.00,,SKC,0.00,VWS V14.01,2013-01-23 03:50:00,
2013-01-22 21:56:00,53.2,47.2,30.25,SE,145,5.0,7.0,80,0.00,,SKC,0.00,VWS V14.01,2013-01-23 03:56:00,
2013-01-22 22:00:00,53.3,47.3,30.26,East,90,5.0,7.0,80,0.00,,SKC,0.00,VWS V14.01,2013-01-23 04:00:00,
2013-01-22 22:02:00,53.3,47.3,30.25,SE,136,1.0,5.0,80,0.00,,SKC,0.00,VWS V14.01,2013-01-23 04:02:00,
2013-01-22 22:08:00,53.3,47.0,30.25,ESE,121,2.0,5.0,79,0.00,,SKC,0.00,VWS V14.01,2013-01-23 04:08:00,
2013-01-22 22:14:00,53.3,47.0,30.26,SE,146,1.0,5.0,79,0.00,,SKC,0.00,VWS V14.01,2013-01-23 04:14:00,
2013-01-22 22:20:00,53.3,47.0,30.26,SE,125,5.0,7.0,79,0.00,,SKC,0.00,VWS V14.01,2013-01-23 04:20:00,
2013-01-22 22:26:00,53.4,47.1,30.26,SE,134,2.0,7.0,79,0.00,,SKC,0.00,VWS V14.01,2013-01-23 04:26:00,
2013-01-22 22:30:00,53.5,47.2,30.26,ESE,120,4.0,7.0,79,0.00,,SKC,0.00,VWS V14.01,2013-01-23 04:30:00,
2013-01-22 22:32:00,53.5,47.2,30.26,ESE,118,3.0,5.0,79,0.00,,SKC,0.00,VWS V14.01,2013-01-23 04:32:00,
2013-01-22 22:38:00,53.5,47.2,30.26,SE,146,2.0,7.0,79,0.00,,SKC,0.00,VWS V14.01,2013-01-23 04:38:00,
2013-01-22 22:44:00,53.4,47.1,30.26,SE,146,2.0,7.0,79,0.00,,SKC,0.00,VWS V14.01,2013-01-23 04:44:00,
2013-01-22 22:50:00,53.3,47.0,30.26,ESE,103,3.0,7.0,79,0.00,,SKC,0.00,VWS V14.01,2013-01-23 04:50:00,
2013-01-22 22:56:00,53.1,46.8,30.26,ESE,122,2.0,7.0,79,0.00,,SKC,0.00,VWS V14.01,2013-01-23 04:56:00,
2013-01-22 23:00:00,53.0,46.7,30.26,ESE,116,2.0,7.0,79,0.00,,SKC,0.00,VWS V14.01,2013-01-23 05:00:00,
2013-01-22 23:01:00,53.0,46.7,30.26,ESE,116,2.0,7.0,79,0.00,,SKC,0.00,VWS V14.01,2013-01-23 05:01:00,
2013-01-22 23:03:00,52.9,46.6,30.26,SE,137,2.0,4.0,79,0.00,,SKC,0.00,VWS V14.01,2013-01-23 05:03:00,
2013-01-22 23:06:00,52.9,46.9,30.26,SE,146,3.0,4.0,80,0.00,,SKC,0.00,VWS V14.01,2013-01-23 05:06:00,
2013-01-22 23:12:00,52.8,46.8,30.26,ESE,113,1.0,4.0,80,0.00,,SKC,0.00,VWS V14.01,2013-01-23 05:12:00,
2013-01-22 23:18:00,52.6,46.6,30.26,SE,144,1.0,4.0,80,0.00,,SKC,0.00,VWS V14.01,2013-01-23 05:18:00,
2013-01-22 23:24:00,52.4,46.4,30.27,SE,140,2.0,4.0,80,0.00,,SKC,0.00,VWS V14.01,2013-01-23 05:24:00,
2013-01-22 23:30:00,52.3,46.7,30.27,SE,142,1.0,4.0,81,0.00,,SKC,0.00,VWS V14.01,2013-01-23 05:30:00,
2013-01-22 23:39:00,52.1,46.5,30.26,South,175,1.0,3.0,81,0.00,,SKC,0.00,VWS V14.01,2013-01-23 05:39:00,
2013-01-22 23:45:00,52.2,46.5,30.26,South,185,2.0,3.0,81,0.00,,SKC,0.00,VWS V14.01,2013-01-23 05:45:00,
2013-01-22 23:51:00,52.3,46.7,30.26,South,173,0.0,3.0,81,0.00,,SKC,0.00,VWS V14.01,2013-01-23 05:51:00,
2013-01-22 23:57:00,52.4,46.8,30.26,SSW,196,1.0,3.0,81,0.00,,SKC,0.00,VWS V14.01,2013-01-23 05:57:00,